sensor_id;sensor_type;location;lat;lon;timestamp;pressure;altitude;pressure_sealevel;temperature;humidity
64908;BME280;69061;52.236;5.188;2023-08-17T00:00:50;102106.19;;;20.27;74.98
64908;BME280;69061;52.236;5.188;2023-08-17T00:03:17;102112.38;;;20.24;73.36
64908;BME280;69061;52.236;5.188;2023-08-17T00:05:44;102103.19;;;20.18;73.62
64908;BME280;69061;52.236;5.188;2023-08-17T00:08:11;102105.50;;;20.16;74.49
64908;BME280;69061;52.236;5.188;2023-08-17T00:10:39;102103.56;;;20.16;75.45
64908;BME280;69061;52.236;5.188;2023-08-17T00:13:06;102110.50;;;20.17;74.16
64908;BME280;69061;52.236;5.188;2023-08-17T00:15:33;102120.19;;;20.11;74.05
64908;BME280;69061;52.236;5.188;2023-08-17T00:17:59;102118.66;;;20.10;74.91
64908;BME280;69061;52.236;5.188;2023-08-17T00:20:28;102117.91;;;20.10;73.47
64908;BME280;69061;52.236;5.188;2023-08-17T00:22:54;102112.13;;;20.08;74.78
64908;BME280;69061;52.236;5.188;2023-08-17T00:25:21;102119.06;;;20.05;74.84
64908;BME280;69061;52.236;5.188;2023-08-17T00:27:50;102124.09;;;20.07;73.88
64908;BME280;69061;52.236;5.188;2023-08-17T00:30:17;102119.88;;;20.02;74.35
64908;BME280;69061;52.236;5.188;2023-08-17T00:32:43;102116.44;;;19.98;75.27
64908;BME280;69061;52.236;5.188;2023-08-17T00:35:10;102117.19;;;19.98;75.45
64908;BME280;69061;52.236;5.188;2023-08-17T00:37:37;102115.69;;;19.97;75.57
64908;BME280;69061;52.236;5.188;2023-08-17T00:40:05;102111.03;;;19.94;74.89
64908;BME280;69061;52.236;5.188;2023-08-17T00:42:32;102112.59;;;19.95;74.73
64908;BME280;69061;52.236;5.188;2023-08-17T00:45:00;102111.44;;;19.93;74.62
64908;BME280;69061;52.236;5.188;2023-08-17T00:47:28;102109.56;;;19.90;74.58
64908;BME280;69061;52.236;5.188;2023-08-17T00:49:55;102107.25;;;19.88;75.46
64908;BME280;69061;52.236;5.188;2023-08-17T00:52:23;102109.22;;;19.84;75.20
64908;BME280;69061;52.236;5.188;2023-08-17T00:54:50;102100.34;;;19.80;75.14
64908;BME280;69061;52.236;5.188;2023-08-17T00:57:17;102106.50;;;19.77;74.12
64908;BME280;69061;52.236;5.188;2023-08-17T00:59:46;102101.16;;;19.73;75.64
64908;BME280;69061;52.236;5.188;2023-08-17T01:02:14;102108.47;;;19.73;76.13
64908;BME280;69061;52.236;5.188;2023-08-17T01:04:40;102102.31;;;19.68;76.14
64908;BME280;69061;52.236;5.188;2023-08-17T01:07:07;102108.50;;;19.69;76.04
64908;BME280;69061;52.236;5.188;2023-08-17T01:09:34;102103.50;;;19.67;75.61
64908;BME280;69061;52.236;5.188;2023-08-17T01:12:08;102102.72;;;19.67;75.36
64908;BME280;69061;52.236;5.188;2023-08-17T01:14:44;102100.44;;;19.65;76.29
64908;BME280;69061;52.236;5.188;2023-08-17T01:17:22;102099.66;;;19.65;75.29
64908;BME280;69061;52.236;5.188;2023-08-17T01:19:52;102086.94;;;19.65;76.84
64908;BME280;69061;52.236;5.188;2023-08-17T01:22:21;102078.50;;;19.63;77.34
64908;BME280;69061;52.236;5.188;2023-08-17T01:24:50;102077.72;;;19.63;77.95
64908;BME280;69061;52.236;5.188;2023-08-17T01:27:22;102081.56;;;19.62;77.67
64908;BME280;69061;52.236;5.188;2023-08-17T01:29:50;102076.22;;;19.58;76.84
64908;BME280;69061;52.236;5.188;2023-08-17T01:32:22;102076.59;;;19.57;76.27
64908;BME280;69061;52.236;5.188;2023-08-17T01:34:57;102083.16;;;19.56;77.27
64908;BME280;69061;52.236;5.188;2023-08-17T01:37:28;102085.06;;;19.55;77.53
64908;BME280;69061;52.236;5.188;2023-08-17T01:39:58;102084.72;;;19.53;76.99
64908;BME280;69061;52.236;5.188;2023-08-17T01:42:25;102088.19;;;19.50;76.43
64908;BME280;69061;52.236;5.188;2023-08-17T01:44:52;102085.91;;;19.45;76.33
64908;BME280;69061;52.236;5.188;2023-08-17T01:47:20;102090.56;;;19.41;76.16
64908;BME280;69061;52.236;5.188;2023-08-17T01:49:47;102093.66;;;19.35;76.50
64908;BME280;69061;52.236;5.188;2023-08-17T01:52:14;102095.59;;;19.35;77.65
64908;BME280;69061;52.236;5.188;2023-08-17T01:54:41;102095.97;;;19.33;77.98
64908;BME280;69061;52.236;5.188;2023-08-17T01:57:10;102092.91;;;19.31;77.15
64908;BME280;69061;52.236;5.188;2023-08-17T01:59:37;102091.00;;;19.28;78.05
64908;BME280;69061;52.236;5.188;2023-08-17T02:02:04;102085.63;;;19.28;78.80
64908;BME280;69061;52.236;5.188;2023-08-17T02:04:31;102091.75;;;19.29;79.36
64908;BME280;69061;52.236;5.188;2023-08-17T02:06:58;102085.97;;;19.30;78.67
64908;BME280;69061;52.236;5.188;2023-08-17T02:09:24;102076.75;;;19.28;77.92
64908;BME280;69061;52.236;5.188;2023-08-17T02:11:51;102089.81;;;19.29;78.51
64908;BME280;69061;52.236;5.188;2023-08-17T02:14:19;102088.31;;;19.28;78.11
64908;BME280;69061;52.236;5.188;2023-08-17T02:16:45;102081.72;;;19.29;79.24
64908;BME280;69061;52.236;5.188;2023-08-17T02:19:12;102087.88;;;19.33;78.77
64908;BME280;69061;52.236;5.188;2023-08-17T02:21:39;102082.47;;;19.33;77.43
64908;BME280;69061;52.236;5.188;2023-08-17T02:24:06;102092.91;;;19.35;77.62
64908;BME280;69061;52.236;5.188;2023-08-17T02:26:33;102083.63;;;19.36;78.16
64908;BME280;69061;52.236;5.188;2023-08-17T02:29:00;102077.50;;;19.32;76.80
64908;BME280;69061;52.236;5.188;2023-08-17T02:31:28;102076.34;;;19.29;77.22
64908;BME280;69061;52.236;5.188;2023-08-17T02:33:56;102080.97;;;19.29;77.17
64908;BME280;69061;52.236;5.188;2023-08-17T02:36:26;102081.72;;;19.29;77.35
64908;BME280;69061;52.236;5.188;2023-08-17T02:38:53;102072.88;;;19.29;76.61
64908;BME280;69061;52.236;5.188;2023-08-17T02:41:19;102074.03;;;19.31;77.67
64908;BME280;69061;52.236;5.188;2023-08-17T02:43:46;102067.88;;;19.31;77.07
64908;BME280;69061;52.236;5.188;2023-08-17T02:46:13;102060.97;;;19.30;77.97
64908;BME280;69061;52.236;5.188;2023-08-17T02:48:41;102064.00;;;19.32;78.21
64908;BME280;69061;52.236;5.188;2023-08-17T02:51:07;102069.78;;;19.34;77.37
64908;BME280;69061;52.236;5.188;2023-08-17T02:53:34;102069.00;;;19.33;77.39
64908;BME280;69061;52.236;5.188;2023-08-17T02:56:01;102065.97;;;19.28;77.95
64908;BME280;69061;52.236;5.188;2023-08-17T02:58:30;102070.94;;;19.33;78.00
64908;BME280;69061;52.236;5.188;2023-08-17T03:00:56;102065.94;;;19.31;78.97
64908;BME280;69061;52.236;5.188;2023-08-17T03:03:24;102071.34;;;19.31;77.30
64908;BME280;69061;52.236;5.188;2023-08-17T03:05:53;102069.47;;;19.21;77.16
64908;BME280;69061;52.236;5.188;2023-08-17T03:08:20;102059.84;;;19.20;78.82
64908;BME280;69061;52.236;5.188;2023-08-17T03:10:47;102062.94;;;19.15;78.33
64908;BME280;69061;52.236;5.188;2023-08-17T03:13:14;102062.91;;;19.18;78.42
64908;BME280;69061;52.236;5.188;2023-08-17T03:15:40;102059.84;;;19.20;79.66
64908;BME280;69061;52.236;5.188;2023-08-17T03:18:07;102059.47;;;19.22;79.18
64908;BME280;69061;52.236;5.188;2023-08-17T03:20:34;102072.16;;;19.25;78.69
64908;BME280;69061;52.236;5.188;2023-08-17T03:23:02;102069.84;;;19.23;77.74
64908;BME280;69061;52.236;5.188;2023-08-17T03:25:31;102073.31;;;19.20;77.68
64908;BME280;69061;52.236;5.188;2023-08-17T03:27:58;102067.94;;;19.16;77.58
64908;BME280;69061;52.236;5.188;2023-08-17T03:30:25;102075.28;;;19.16;78.59
64908;BME280;69061;52.236;5.188;2023-08-17T03:32:52;102079.88;;;19.19;80.02
64908;BME280;69061;52.236;5.188;2023-08-17T03:35:19;102076.03;;;19.20;79.92
64908;BME280;69061;52.236;5.188;2023-08-17T03:37:45;102069.09;;;19.19;79.52
64908;BME280;69061;52.236;5.188;2023-08-17T03:40:13;102068.69;;;19.21;79.99
64908;BME280;69061;52.236;5.188;2023-08-17T03:42:41;102068.31;;;19.22;79.68
64908;BME280;69061;52.236;5.188;2023-08-17T03:45:08;102061.75;;;19.23;79.75
64908;BME280;69061;52.236;5.188;2023-08-17T03:47:35;102069.84;;;19.23;79.48
64908;BME280;69061;52.236;5.188;2023-08-17T03:50:03;102067.16;;;19.23;79.13
64908;BME280;69061;52.236;5.188;2023-08-17T03:52:29;102067.91;;;19.24;77.53
64908;BME280;69061;52.236;5.188;2023-08-17T03:54:56;102073.69;;;19.18;78.96
64908;BME280;69061;52.236;5.188;2023-08-17T03:57:24;102061.41;;;19.17;79.53
64908;BME280;69061;52.236;5.188;2023-08-17T03:59:51;102069.88;;;19.16;79.13
64908;BME280;69061;52.236;5.188;2023-08-17T04:02:18;102064.88;;;19.14;78.51
64908;BME280;69061;52.236;5.188;2023-08-17T04:04:45;102064.50;;;19.12;79.84
64908;BME280;69061;52.236;5.188;2023-08-17T04:07:14;102069.50;;;19.14;78.50
64908;BME280;69061;52.236;5.188;2023-08-17T04:09:47;102061.41;;;19.10;79.34
64908;BME280;69061;52.236;5.188;2023-08-17T04:12:13;102073.34;;;19.13;79.38
64908;BME280;69061;52.236;5.188;2023-08-17T04:14:42;102072.97;;;19.11;78.80
64908;BME280;69061;52.236;5.188;2023-08-17T04:17:09;102063.34;;;19.06;79.00
64908;BME280;69061;52.236;5.188;2023-08-17T04:19:36;102069.91;;;19.09;78.26
64908;BME280;69061;52.236;5.188;2023-08-17T04:22:03;102070.69;;;19.09;79.10
64908;BME280;69061;52.236;5.188;2023-08-17T04:24:30;102066.03;;;19.10;80.20
64908;BME280;69061;52.236;5.188;2023-08-17T04:26:59;102072.97;;;19.11;79.22
64908;BME280;69061;52.236;5.188;2023-08-17T04:29:26;102065.25;;;19.13;80.09
64908;BME280;69061;52.236;5.188;2023-08-17T04:31:55;102068.34;;;19.15;79.89
64908;BME280;69061;52.236;5.188;2023-08-17T04:34:22;102071.03;;;19.15;79.52
64908;BME280;69061;52.236;5.188;2023-08-17T04:36:48;102067.94;;;19.16;79.99
64908;BME280;69061;52.236;5.188;2023-08-17T04:39:15;102073.69;;;19.18;78.32
64908;BME280;69061;52.236;5.188;2023-08-17T04:41:42;102062.16;;;19.14;77.77
64908;BME280;69061;52.236;5.188;2023-08-17T04:44:09;102057.56;;;19.15;78.84
64908;BME280;69061;52.236;5.188;2023-08-17T04:46:36;102061.41;;;19.17;79.79
64908;BME280;69061;52.236;5.188;2023-08-17T04:49:06;102054.47;;;19.16;79.18
64908;BME280;69061;52.236;5.188;2023-08-17T04:51:33;102058.31;;;19.19;80.13
64908;BME280;69061;52.236;5.188;2023-08-17T04:54:00;102052.94;;;19.19;78.92
64908;BME280;69061;52.236;5.188;2023-08-17T04:56:27;102049.09;;;19.16;78.50
64908;BME280;69061;52.236;5.188;2023-08-17T04:58:54;102051.44;;;19.11;80.19
64908;BME280;69061;52.236;5.188;2023-08-17T05:01:21;102053.72;;;19.12;79.38
64908;BME280;69061;52.236;5.188;2023-08-17T05:03:49;102043.75;;;19.09;78.94
64908;BME280;69061;52.236;5.188;2023-08-17T05:06:18;102047.59;;;19.08;80.72
64908;BME280;69061;52.236;5.188;2023-08-17T05:08:45;102042.94;;;19.09;79.35
64908;BME280;69061;52.236;5.188;2023-08-17T05:11:12;102040.66;;;19.07;79.84
64908;BME280;69061;52.236;5.188;2023-08-17T05:13:39;102039.91;;;19.07;80.07
64908;BME280;69061;52.236;5.188;2023-08-17T05:16:05;102036.03;;;19.08;80.00
64908;BME280;69061;52.236;5.188;2023-08-17T05:18:32;102036.81;;;19.05;80.80
64908;BME280;69061;52.236;5.188;2023-08-17T05:20:59;102042.19;;;19.08;80.94
64908;BME280;69061;52.236;5.188;2023-08-17T05:23:28;102040.25;;;19.12;81.96
64908;BME280;69061;52.236;5.188;2023-08-17T05:25:54;102038.28;;;19.20;80.49
64908;BME280;69061;52.236;5.188;2023-08-17T05:28:21;102042.16;;;19.19;79.82
64908;BME280;69061;52.236;5.188;2023-08-17T05:30:50;102045.94;;;19.25;79.72
64908;BME280;69061;52.236;5.188;2023-08-17T05:33:18;102037.50;;;19.27;78.76
64908;BME280;69061;52.236;5.188;2023-08-17T05:35:45;102033.97;;;19.33;79.49
64908;BME280;69061;52.236;5.188;2023-08-17T05:38:12;102035.47;;;19.42;79.58
64908;BME280;69061;52.236;5.188;2023-08-17T05:40:40;102042.78;;;19.45;77.64
64908;BME280;69061;52.236;5.188;2023-08-17T05:43:07;102034.69;;;19.41;78.33
64908;BME280;69061;52.236;5.188;2023-08-17T05:45:35;102044.31;;;19.42;78.08
64908;BME280;69061;52.236;5.188;2023-08-17T05:48:02;102053.16;;;19.43;77.63
64908;BME280;69061;52.236;5.188;2023-08-17T05:50:29;102052.00;;;19.44;77.59
64908;BME280;69061;52.236;5.188;2023-08-17T05:52:57;102050.06;;;19.44;77.59
64908;BME280;69061;52.236;5.188;2023-08-17T05:55:23;102056.59;;;19.47;77.27
64908;BME280;69061;52.236;5.188;2023-08-17T05:57:51;102050.47;;;19.43;76.80
64908;BME280;69061;52.236;5.188;2023-08-17T06:00:18;102058.97;;;19.41;77.20
64908;BME280;69061;52.236;5.188;2023-08-17T06:02:45;102061.25;;;19.43;78.08
64908;BME280;69061;52.236;5.188;2023-08-17T06:05:15;102065.47;;;19.47;78.42
64908;BME280;69061;52.236;5.188;2023-08-17T06:07:42;102058.88;;;19.56;77.59
64908;BME280;69061;52.236;5.188;2023-08-17T06:10:10;102063.50;;;19.55;76.47
64908;BME280;69061;52.236;5.188;2023-08-17T06:12:37;102063.88;;;19.57;76.34
64908;BME280;69061;52.236;5.188;2023-08-17T06:15:06;102063.47;;;19.62;76.41
64908;BME280;69061;52.236;5.188;2023-08-17T06:17:33;102063.47;;;19.62;76.20
64908;BME280;69061;52.236;5.188;2023-08-17T06:20:00;102060.38;;;19.64;76.05
64908;BME280;69061;52.236;5.188;2023-08-17T06:22:28;102062.66;;;19.65;75.82
64908;BME280;69061;52.236;5.188;2023-08-17T06:24:55;102065.00;;;19.63;75.53
64908;BME280;69061;52.236;5.188;2023-08-17T06:27:22;102065.78;;;19.60;75.61
64908;BME280;69061;52.236;5.188;2023-08-17T06:29:48;102074.25;;;19.62;75.44
64908;BME280;69061;52.236;5.188;2023-08-17T06:32:17;102072.31;;;19.63;75.35
64908;BME280;69061;52.236;5.188;2023-08-17T06:34:44;102076.56;;;19.64;75.79
64908;BME280;69061;52.236;5.188;2023-08-17T06:37:12;102077.28;;;19.68;75.84
64908;BME280;69061;52.236;5.188;2023-08-17T06:39:38;102073.84;;;19.67;75.73
64908;BME280;69061;52.236;5.188;2023-08-17T06:42:05;102077.69;;;19.70;75.61
64908;BME280;69061;52.236;5.188;2023-08-17T06:44:32;102085.38;;;19.72;75.54
64908;BME280;69061;52.236;5.188;2023-08-17T06:46:59;102088.84;;;19.68;75.26
64908;BME280;69061;52.236;5.188;2023-08-17T06:49:27;102086.53;;;19.67;75.16
64908;BME280;69061;52.236;5.188;2023-08-17T06:51:54;102085.00;;;19.66;75.13
64908;BME280;69061;52.236;5.188;2023-08-17T06:54:21;102080.41;;;19.66;74.59
64908;BME280;69061;52.236;5.188;2023-08-17T06:56:48;102079.59;;;19.66;75.17
64908;BME280;69061;52.236;5.188;2023-08-17T06:59:15;102086.88;;;19.73;75.42
64908;BME280;69061;52.236;5.188;2023-08-17T07:01:43;102088.03;;;19.75;74.77
64908;BME280;69061;52.236;5.188;2023-08-17T07:04:14;102090.34;;;19.80;75.16
64908;BME280;69061;52.236;5.188;2023-08-17T07:06:43;102084.13;;;19.87;75.18
64908;BME280;69061;52.236;5.188;2023-08-17T07:09:09;102079.47;;;19.91;74.55
64908;BME280;69061;52.236;5.188;2023-08-17T07:11:37;102084.81;;;19.98;74.97
64908;BME280;69061;52.236;5.188;2023-08-17T07:14:05;102080.13;;;20.06;74.78
64908;BME280;69061;52.236;5.188;2023-08-17T07:16:31;102089.34;;;20.12;74.52
64908;BME280;69061;52.236;5.188;2023-08-17T07:18:58;102093.91;;;20.19;74.86
64908;BME280;69061;52.236;5.188;2023-08-17T07:21:25;102094.66;;;20.23;74.04
64908;BME280;69061;52.236;5.188;2023-08-17T07:23:54;102095.81;;;20.22;73.97
64908;BME280;69061;52.236;5.188;2023-08-17T07:26:21;102092.31;;;20.25;74.15
64908;BME280;69061;52.236;5.188;2023-08-17T07:28:48;102098.84;;;20.28;73.75
64908;BME280;69061;52.236;5.188;2023-08-17T07:31:15;102086.16;;;20.25;73.97
64908;BME280;69061;52.236;5.188;2023-08-17T07:33:42;102088.84;;;20.28;74.27
64908;BME280;69061;52.236;5.188;2023-08-17T07:36:09;102086.09;;;20.32;73.89
64908;BME280;69061;52.236;5.188;2023-08-17T07:38:36;102080.72;;;20.28;74.16
64908;BME280;69061;52.236;5.188;2023-08-17T07:41:04;102076.06;;;20.32;73.72
64908;BME280;69061;52.236;5.188;2023-08-17T07:43:31;102087.59;;;20.36;73.55
64908;BME280;69061;52.236;5.188;2023-08-17T07:45:58;102093.00;;;20.36;73.53
64908;BME280;69061;52.236;5.188;2023-08-17T07:48:24;102088.38;;;20.33;73.29
64908;BME280;69061;52.236;5.188;2023-08-17T07:50:52;102089.91;;;20.38;73.83
64908;BME280;69061;52.236;5.188;2023-08-17T07:53:19;102084.13;;;20.36;73.61
64908;BME280;69061;52.236;5.188;2023-08-17T07:55:46;102083.72;;;20.38;73.54
64908;BME280;69061;52.236;5.188;2023-08-17T07:58:15;102086.38;;;20.41;73.55
64908;BME280;69061;52.236;5.188;2023-08-17T08:00:41;102096.38;;;20.44;73.08
64908;BME280;69061;52.236;5.188;2023-08-17T08:03:08;102092.91;;;20.44;73.08
64908;BME280;69061;52.236;5.188;2023-08-17T08:05:35;102095.19;;;20.49;73.48
64908;BME280;69061;52.236;5.188;2023-08-17T08:08:02;102088.97;;;20.56;73.34
64908;BME280;69061;52.236;5.188;2023-08-17T08:10:29;102096.94;;;20.66;73.01
64908;BME280;69061;52.236;5.188;2023-08-17T08:12:56;102093.06;;;20.71;72.36
64908;BME280;69061;52.236;5.188;2023-08-17T08:15:24;102082.19;;;20.78;72.51
64908;BME280;69061;52.236;5.188;2023-08-17T08:17:51;102081.59;;;20.94;72.15
64908;BME280;69061;52.236;5.188;2023-08-17T08:20:19;102084.97;;;21.06;71.61
64908;BME280;69061;52.236;5.188;2023-08-17T08:22:46;102081.34;;;21.16;70.87
64908;BME280;69061;52.236;5.188;2023-08-17T08:25:13;102071.63;;;21.22;70.86
64908;BME280;69061;52.236;5.188;2023-08-17T08:27:40;102068.50;;;21.24;70.71
64908;BME280;69061;52.236;5.188;2023-08-17T08:30:07;102063.38;;;21.33;71.36
64908;BME280;69061;52.236;5.188;2023-08-17T08:32:36;102077.88;;;21.46;70.28
64908;BME280;69061;52.236;5.188;2023-08-17T08:35:03;102077.75;;;21.57;69.44
64908;BME280;69061;52.236;5.188;2023-08-17T08:37:30;102080.28;;;21.68;69.21
64908;BME280;69061;52.236;5.188;2023-08-17T08:39:57;102076.72;;;21.75;68.33
64908;BME280;69061;52.236;5.188;2023-08-17T08:42:24;102077.31;;;21.86;68.84
64908;BME280;69061;52.236;5.188;2023-08-17T08:44:51;102079.38;;;22.02;68.57
64908;BME280;69061;52.236;5.188;2023-08-17T08:47:18;102072.13;;;22.19;68.20
64908;BME280;69061;52.236;5.188;2023-08-17T08:49:56;102071.44;;;22.39;66.81
64908;BME280;69061;52.236;5.188;2023-08-17T08:52:32;102070.88;;;22.47;66.06
64908;BME280;69061;52.236;5.188;2023-08-17T08:55:09;102064.44;;;22.61;66.28
64908;BME280;69061;52.236;5.188;2023-08-17T08:57:37;102056.44;;;22.74;65.68
64908;BME280;69061;52.236;5.188;2023-08-17T09:00:06;102064.22;;;22.92;65.95
64908;BME280;69061;52.236;5.188;2023-08-17T09:02:33;102050.03;;;23.04;65.25
64908;BME280;69061;52.236;5.188;2023-08-17T09:05:02;102052.19;;;23.13;64.41
64908;BME280;69061;52.236;5.188;2023-08-17T09:07:29;102051.69;;;23.18;64.15
64908;BME280;69061;52.236;5.188;2023-08-17T09:09:57;102054.59;;;23.28;64.06
64908;BME280;69061;52.236;5.188;2023-08-17T09:12:24;102056.56;;;23.44;64.02
64908;BME280;69061;52.236;5.188;2023-08-17T09:14:52;102060.88;;;23.58;63.04
64908;BME280;69061;52.236;5.188;2023-08-17T09:17:22;102052.31;;;23.59;62.14
64908;BME280;69061;52.236;5.188;2023-08-17T09:19:50;102049.94;;;23.61;62.59
64908;BME280;69061;52.236;5.188;2023-08-17T09:22:23;102051.56;;;23.59;61.78
64908;BME280;69061;52.236;5.188;2023-08-17T09:24:50;102052.31;;;23.59;61.51
64908;BME280;69061;52.236;5.188;2023-08-17T09:27:18;102053.84;;;23.60;62.00
64908;BME280;69061;52.236;5.188;2023-08-17T09:29:47;102053.78;;;23.64;61.62
64908;BME280;69061;52.236;5.188;2023-08-17T09:32:14;102043.75;;;23.61;59.99
64908;BME280;69061;52.236;5.188;2023-08-17T09:34:41;102036.47;;;23.58;61.15
64908;BME280;69061;52.236;5.188;2023-08-17T09:37:08;102036.72;;;23.63;60.57
64908;BME280;69061;52.236;5.188;2023-08-17T09:39:36;102028.38;;;23.70;60.54
64908;BME280;69061;52.236;5.188;2023-08-17T09:42:03;102040.94;;;23.81;59.82
64908;BME280;69061;52.236;5.188;2023-08-17T09:44:33;102033.47;;;23.85;59.39
64908;BME280;69061;52.236;5.188;2023-08-17T09:46:59;102028.97;;;23.95;59.41
64908;BME280;69061;52.236;5.188;2023-08-17T09:49:30;102031.97;;;24.00;59.63
64908;BME280;69061;52.236;5.188;2023-08-17T09:52:00;102029.13;;;24.04;59.64
64908;BME280;69061;52.236;5.188;2023-08-17T09:54:30;102017.44;;;23.91;59.41
64908;BME280;69061;52.236;5.188;2023-08-17T09:56:58;102025.84;;;23.96;59.70
64908;BME280;69061;52.236;5.188;2023-08-17T09:59:26;102030.25;;;24.07;60.29
64908;BME280;69061;52.236;5.188;2023-08-17T10:01:53;102017.81;;;24.22;59.71
64908;BME280;69061;52.236;5.188;2023-08-17T10:04:22;102025.09;;;24.25;59.10
64908;BME280;69061;52.236;5.188;2023-08-17T10:06:51;102010.50;;;24.19;59.53
64908;BME280;69061;52.236;5.188;2023-08-17T10:09:23;102004.34;;;24.18;59.78
64908;BME280;69061;52.236;5.188;2023-08-17T10:11:51;102010.13;;;24.33;59.66
64908;BME280;69061;52.236;5.188;2023-08-17T10:14:22;102013.84;;;24.39;59.65
64908;BME280;69061;52.236;5.188;2023-08-17T10:16:57;102017.25;;;24.44;58.83
64908;BME280;69061;52.236;5.188;2023-08-17T10:19:33;102011.53;;;24.38;58.54
64908;BME280;69061;52.236;5.188;2023-08-17T10:22:08;102018.38;;;24.30;58.19
64908;BME280;69061;52.236;5.188;2023-08-17T10:24:39;102014.09;;;24.16;58.51
64908;BME280;69061;52.236;5.188;2023-08-17T10:27:07;102017.19;;;24.01;58.95
64908;BME280;69061;52.236;5.188;2023-08-17T10:29:36;102010.41;;;23.93;59.23
64908;BME280;69061;52.236;5.188;2023-08-17T10:32:05;102012.84;;;23.87;59.80
64908;BME280;69061;52.236;5.188;2023-08-17T10:34:33;102013.47;;;23.79;60.26
64908;BME280;69061;52.236;5.188;2023-08-17T10:37:01;102010.84;;;23.75;60.90
64908;BME280;69061;52.236;5.188;2023-08-17T10:39:29;102017.22;;;23.68;60.82
64908;BME280;69061;52.236;5.188;2023-08-17T10:41:57;102021.59;;;23.62;61.23
64908;BME280;69061;52.236;5.188;2023-08-17T10:44:43;102019.94;;;23.52;61.20
64908;BME280;69061;52.236;5.188;2023-08-17T10:47:24;102012.28;;;23.47;61.70
64908;BME280;69061;52.236;5.188;2023-08-17T10:49:51;102004.22;;;23.43;61.97
64908;BME280;69061;52.236;5.188;2023-08-17T10:52:26;102007.03;;;23.40;62.75
64908;BME280;69061;52.236;5.188;2023-08-17T10:54:53;102001.00;;;23.48;62.45
64908;BME280;69061;52.236;5.188;2023-08-17T10:57:31;102006.69;;;23.54;62.89
64908;BME280;69061;52.236;5.188;2023-08-17T11:00:19;102003.28;;;23.66;62.56
64908;BME280;69061;52.236;5.188;2023-08-17T11:02:53;101998.13;;;23.72;61.55
64908;BME280;69061;52.236;5.188;2023-08-17T11:05:37;102006.84;;;23.63;62.03
64908;BME280;69061;52.236;5.188;2023-08-17T11:08:05;102009.75;;;23.56;61.49
64908;BME280;69061;52.236;5.188;2023-08-17T11:10:34;102016.53;;;23.48;61.91
64908;BME280;69061;52.236;5.188;2023-08-17T11:13:01;102016.19;;;23.46;62.44
64908;BME280;69061;52.236;5.188;2023-08-17T11:15:37;102006.13;;;23.46;62.92
64908;BME280;69061;52.236;5.188;2023-08-17T11:18:06;102014.16;;;23.50;62.77
64908;BME280;69061;52.236;5.188;2023-08-17T11:20:34;102018.41;;;23.51;62.67
64908;BME280;69061;52.236;5.188;2023-08-17T11:23:00;102010.63;;;23.53;63.29
64908;BME280;69061;52.236;5.188;2023-08-17T11:25:27;102008.16;;;23.59;63.13
64908;BME280;69061;52.236;5.188;2023-08-17T11:27:54;102002.72;;;23.59;62.64
64908;BME280;69061;52.236;5.188;2023-08-17T11:30:21;102003.47;;;23.59;62.46
64908;BME280;69061;52.236;5.188;2023-08-17T11:32:51;102004.41;;;23.52;61.75
64908;BME280;69061;52.236;5.188;2023-08-17T11:35:19;101995.00;;;23.41;62.46
64908;BME280;69061;52.236;5.188;2023-08-17T11:37:46;102004.47;;;23.32;62.36
64908;BME280;69061;52.236;5.188;2023-08-17T11:40:14;101999.91;;;23.29;62.73
64908;BME280;69061;52.236;5.188;2023-08-17T11:42:41;102009.16;;;23.32;63.76
64908;BME280;69061;52.236;5.188;2023-08-17T11:45:09;102005.50;;;23.38;62.77
64908;BME280;69061;52.236;5.188;2023-08-17T11:47:35;102003.31;;;23.33;62.74
64908;BME280;69061;52.236;5.188;2023-08-17T11:50:05;102005.41;;;23.26;62.44
64908;BME280;69061;52.236;5.188;2023-08-17T11:52:32;102006.00;;;23.17;63.01
64908;BME280;69061;52.236;5.188;2023-08-17T11:55:02;101997.50;;;23.15;63.21
64908;BME280;69061;52.236;5.188;2023-08-17T11:57:29;102000.16;;;23.18;63.54
64908;BME280;69061;52.236;5.188;2023-08-17T11:59:57;101995.47;;;23.19;63.38
64908;BME280;69061;52.236;5.188;2023-08-17T12:02:25;101997.50;;;23.15;63.15
64908;BME280;69061;52.236;5.188;2023-08-17T12:04:53;102001.47;;;23.10;63.23
64908;BME280;69061;52.236;5.188;2023-08-17T12:07:21;101992.59;;;23.10;63.39
64908;BME280;69061;52.236;5.188;2023-08-17T12:09:51;101992.66;;;23.06;63.57
64908;BME280;69061;52.236;5.188;2023-08-17T12:12:18;101992.22;;;23.08;63.84
64908;BME280;69061;52.236;5.188;2023-08-17T12:14:47;101998.94;;;23.03;63.95
64908;BME280;69061;52.236;5.188;2023-08-17T12:17:14;101994.69;;;23.02;64.23
64908;BME280;69061;52.236;5.188;2023-08-17T12:19:42;101986.13;;;23.03;65.04
64908;BME280;69061;52.236;5.188;2023-08-17T12:22:09;101975.13;;;23.11;64.84
64908;BME280;69061;52.236;5.188;2023-08-17T12:24:38;101982.72;;;23.19;64.74
64908;BME280;69061;52.236;5.188;2023-08-17T12:27:05;101975.56;;;23.26;63.94
64908;BME280;69061;52.236;5.188;2023-08-17T12:29:32;101992.63;;;23.26;64.02
64908;BME280;69061;52.236;5.188;2023-08-17T12:32:00;101980.69;;;23.24;63.42
64908;BME280;69061;52.236;5.188;2023-08-17T12:34:27;101981.00;;;23.26;64.18
64908;BME280;69061;52.236;5.188;2023-08-17T12:36:54;101989.06;;;23.29;64.44
64908;BME280;69061;52.236;5.188;2023-08-17T12:39:21;101983.63;;;23.29;64.27
64908;BME280;69061;52.236;5.188;2023-08-17T12:41:49;101984.13;;;23.24;64.17
64908;BME280;69061;52.236;5.188;2023-08-17T12:44:15;101982.59;;;23.23;64.80
64908;BME280;69061;52.236;5.188;2023-08-17T12:46:42;101982.97;;;23.25;65.18
64908;BME280;69061;52.236;5.188;2023-08-17T12:49:09;101976.84;;;23.21;64.98
64908;BME280;69061;52.236;5.188;2023-08-17T12:51:36;101991.28;;;23.18;65.71
64908;BME280;69061;52.236;5.188;2023-08-17T12:54:03;101985.00;;;23.21;65.88